Time;durP1;ratioP1;P1;durP2;ratioP2;P2;SDS_P1;SDS_P2;PMS_P1;PMS_P2;Temp;Humidity;BMP_temperature;BMP_pressure;BME280_temperature;BME280_humidity;BME280_pressure;Samples;Min_cycle;Max_cycle;Signal;HPM_P1;HPM_P2
2021/03/07 00:02:26;;;;;;;14.27;7.53;;;;;;;-2.37;80.00;97559.31;4958565;28;20431;-63
2021/03/07 00:04:52;;;;;;;17.38;8.32;;;;;;;-2.33;79.51;97555.84;4963622;28;20049;-64
2021/03/07 00:07:18;;;;;;;62.72;17.40;;;;;;;-2.47;78.76;97561.94;4944516;28;20046;-64
2021/03/07 00:09:43;;;;;;;32.50;11.15;;;;;;;-2.45;79.67;97563.28;4975811;28;20059;-65
2021/03/07 00:12:08;;;;;;;27.35;9.23;;;;;;;-2.37;80.68;97552.06;4964857;28;20035;-63
2021/03/07 00:14:34;;;;;;;16.52;9.02;;;;;;;-2.34;80.35;97562.28;4963036;28;20537;-63
2021/03/07 00:16:59;;;;;;;15.68;7.88;;;;;;;-2.44;79.09;97564.91;4963142;28;20035;-63
2021/03/07 00:19:25;;;;;;;16.70;8.45;;;;;;;-2.57;78.11;97557.34;4956751;28;20047;-62
2021/03/07 00:21:50;;;;;;;15.07;7.88;;;;;;;-2.51;79.39;97553.63;4962213;28;20049;-64
2021/03/07 00:24:16;;;;;;;13.55;8.02;;;;;;;-2.44;80.32;97550.72;4956698;28;20054;-63
2021/03/07 00:26:42;;;;;;;14.70;8.02;;;;;;;-2.37;79.93;97551.28;4961748;28;20051;-63
2021/03/07 00:29:07;;;;;;;14.85;7.68;;;;;;;-2.42;80.04;97548.56;4956154;28;20440;-62
2021/03/07 00:31:33;;;;;;;13.70;7.60;;;;;;;-2.54;78.34;97546.09;4962121;28;20057;-63
2021/03/07 00:33:58;;;;;;;13.45;7.32;;;;;;;-2.56;78.69;97545.53;4961753;28;20094;-64
2021/03/07 00:36:24;;;;;;;16.38;7.55;;;;;;;-2.40;79.80;97547.22;4956776;28;20621;-63
2021/03/07 00:38:49;;;;;;;13.10;7.60;;;;;;;-2.32;79.75;97545.94;4963383;28;20054;-64
2021/03/07 00:41:15;;;;;;;12.90;8.00;;;;;;;-2.24;79.38;97545.41;4957056;28;20038;-64
2021/03/07 00:43:40;;;;;;;14.32;7.43;;;;;;;-2.24;79.38;97545.41;4962680;28;20464;-63
2021/03/07 00:46:06;;;;;;;18.33;8.75;;;;;;;-2.40;78.76;97541.84;4939969;28;20038;-63
2021/03/07 00:48:31;;;;;;;14.90;8.27;;;;;;;-2.54;78.46;97546.09;4967099;28;20067;-63
2021/03/07 00:50:57;;;;;;;13.52;7.53;;;;;;;-2.44;80.30;97545.34;4960681;28;20038;-64
2021/03/07 00:53:23;;;;;;;13.52;7.00;;;;;;;-2.38;80.48;97544.28;4956945;28;20055;-63
2021/03/07 00:55:48;;;;;;;15.93;8.35;;;;;;;-2.44;81.08;97532.72;4962481;28;20070;-63
2021/03/07 00:58:14;;;;;;;14.10;7.40;;;;;;;-2.40;80.59;97530.34;4956458;28;20057;-64
2021/03/07 01:00:41;;;;;;;17.95;10.25;;;;;;;-2.38;80.36;97528.19;4962186;28;20039;-63
2021/03/07 01:03:06;;;;;;;16.80;8.98;;;;;;;-2.35;80.58;97535.72;4956881;28;20043;-63
2021/03/07 01:05:33;;;;;;;20.88;11.32;;;;;;;-2.39;80.37;97532.75;4961778;28;20097;-64
2021/03/07 01:07:58;;;;;;;18.73;9.43;;;;;;;-2.37;80.48;97529.81;4962481;28;20112;-64
2021/03/07 01:10:32;;;;;;;17.25;8.57;;;;;;;-2.38;80.39;97531.66;4955657;28;20703;-64
2021/03/07 01:12:58;;;;;;;18.08;8.68;;;;;;;-2.59;79.08;97525.44;4961708;28;20043;-64
2021/03/07 01:15:30;;;;;;;16.38;9.10;;;;;;;-2.57;80.36;97519.81;4956823;28;20105;-64
2021/03/07 01:17:56;;;;;;;14.80;8.30;;;;;;;-2.58;80.43;97513.63;4960755;28;20046;-64
2021/03/07 01:20:23;;;;;;;20.80;9.38;;;;;;;-2.43;80.67;97515.56;4956137;28;21526;-64
2021/03/07 01:22:50;;;;;;;16.23;7.53;;;;;;;-2.21;80.15;97503.84;4944092;28;20046;-64
2021/03/07 01:25:18;;;;;;;17.35;8.75;;;;;;;-2.32;80.45;97505.69;4954248;28;20070;-65
2021/03/07 01:27:44;;;;;;;15.65;8.85;;;;;;;-2.41;79.95;97502.69;4959894;28;20054;-63
2021/03/07 01:30:10;;;;;;;15.98;7.88;;;;;;;-2.62;80.93;97506.38;4992300;23;20041;-61
2021/03/07 01:32:36;;;;;;;15.38;8.35;;;;;;;-2.64;81.30;97501.25;5011912;28;20041;-62
2021/03/07 01:35:02;;;;;;;15.10;8.80;;;;;;;-2.63;81.60;97504.75;5005231;28;20382;-61
2021/03/07 01:37:28;;;;;;;14.20;7.78;;;;;;;-2.67;81.89;97499.09;4997314;28;20100;-61
2021/03/07 01:39:53;;;;;;;14.98;7.50;;;;;;;-2.82;80.96;97497.16;5001366;28;20061;-62
2021/03/07 01:42:19;;;;;;;15.73;8.10;;;;;;;-2.80;81.49;97505.75;4978468;28;20044;-64
2021/03/07 01:44:45;;;;;;;14.27;8.07;;;;;;;-2.83;81.34;97495.53;5001303;28;20109;-63
2021/03/07 01:47:12;;;;;;;15.88;8.23;;;;;;;-3.03;80.81;97503.47;4998896;28;20034;-64
2021/03/07 01:49:37;;;;;;;16.55;9.15;;;;;;;-3.20;82.63;97509.78;5003363;28;20050;-64
2021/03/07 01:52:03;;;;;;;16.70;8.30;;;;;;;-3.07;82.89;97495.94;4999547;28;20030;-63
2021/03/07 01:54:28;;;;;;;14.68;8.77;;;;;;;-2.92;82.87;97497.91;4980450;28;20061;-61
2021/03/07 01:56:56;;;;;;;18.50;8.85;;;;;;;-2.84;82.66;97493.13;4981606;28;20038;-62
2021/03/07 01:59:24;;;;;;;16.50;8.60;;;;;;;-2.96;81.97;97486.09;4975463;28;20381;-62
2021/03/07 02:01:50;;;;;;;20.35;9.30;;;;;;;-2.93;82.82;97488.25;4999913;28;20081;-63
2021/03/07 02:04:15;;;;;;;15.02;8.43;;;;;;;-2.90;82.76;97479.69;4987303;28;20681;-63
2021/03/07 02:06:42;;;;;;;13.13;7.78;;;;;;;-2.91;82.84;97475.38;4964357;28;20050;-62
2021/03/07 02:09:08;;;;;;;17.63;8.25;;;;;;;-2.82;82.54;97473.03;4985968;28;20042;-62
2021/03/07 02:11:37;;;;;;;16.10;8.88;;;;;;;-2.70;81.92;97464.78;4981133;28;20109;-61
2021/03/07 02:14:04;;;;;;;14.65;8.73;;;;;;;-2.69;81.67;97464.50;4964432;28;20054;-61
2021/03/07 02:16:30;;;;;;;15.32;9.00;;;;;;;-2.62;82.05;97458.91;4992010;28;20042;-62
2021/03/07 02:18:55;;;;;;;14.85;8.45;;;;;;;-2.62;81.43;97455.41;4980654;28;20045;-62
2021/03/07 02:21:28;;;;;;;14.73;7.78;;;;;;;-2.83;80.46;97457.19;4974556;28;20543;-61
2021/03/07 02:24:11;;;;;;;15.18;7.35;;;;;;;-3.03;79.79;97456.03;4984398;28;20062;-63
2021/03/07 02:26:54;;;;;;;16.15;8.43;;;;;;;-2.99;80.95;97453.63;4983868;28;20050;-61
2021/03/07 02:29:22;;;;;;;19.58;8.35;;;;;;;-3.09;81.26;97452.50;4979426;28;20129;-60
2021/03/07 02:31:53;;;;;;;16.45;8.82;;;;;;;-3.25;81.74;97447.34;4983784;28;20038;-63
2021/03/07 02:34:41;;;;;;;18.23;8.80;;;;;;;-3.46;83.46;97453.38;4979103;28;20046;-61
2021/03/07 02:37:10;;;;;;;19.25;8.90;;;;;;;-3.54;83.85;97459.19;4983668;28;20130;-62
2021/03/07 02:39:39;;;;;;;17.55;9.00;;;;;;;-3.59;84.74;97453.78;4987559;28;20042;-63
2021/03/07 02:42:09;;;;;;;19.98;9.38;;;;;;;-3.59;84.62;97458.34;4981857;28;20411;-62
2021/03/07 02:44:35;;;;;;;;;;;;;;;-3.51;84.90;97452.50;4987530;28;20046;-61
2021/03/07 02:47:02;;;;;;;16.13;8.93;;;;;;;-3.26;85.11;97449.19;4987758;28;20286;-60
2021/03/07 02:49:29;;;;;;;15.70;8.93;;;;;;;-3.15;84.68;97452.72;4978921;28;20055;-62
2021/03/07 02:51:57;;;;;;;18.27;8.80;;;;;;;-3.11;84.50;97446.59;4983890;28;20509;-61
2021/03/07 02:54:24;;;;;;;18.10;10.02;;;;;;;-3.04;84.33;97448.25;4978617;28;20065;-61
2021/03/07 02:56:54;;;;;;;18.65;8.40;;;;;;;-3.12;83.54;97447.66;4969001;28;20376;-61
2021/03/07 02:59:20;;;;;;;;;;;;;;;-3.05;83.32;97447.44;4964494;28;20077;-62
2021/03/07 03:01:47;;;;;;;14.75;7.22;;;;;;;-3.15;83.16;97445.53;4987922;28;19925;-62
2021/03/07 03:04:13;;;;;;;14.70;8.02;;;;;;;-3.36;81.92;97449.16;4985508;28;20081;-62
2021/03/07 03:06:42;;;;;;;16.50;7.90;;;;;;;-3.45;82.18;97451.50;4971081;28;20070;-61
2021/03/07 03:09:10;;;;;;;11.75;6.97;;;;;;;-3.39;83.54;97446.97;4979090;28;20368;-62
2021/03/07 03:11:39;;;;;;;15.90;7.68;;;;;;;-3.19;84.23;97446.28;4981612;28;20081;-63
2021/03/07 03:14:11;;;;;;;18.45;9.00;;;;;;;-3.23;83.96;97450.56;4978706;28;20074;-62
2021/03/07 03:16:38;;;;;;;14.85;8.25;;;;;;;-3.25;83.27;97450.00;4984005;28;20133;-62
2021/03/07 03:19:08;;;;;;;17.10;9.18;;;;;;;-3.12;83.23;97452.22;4979925;28;20039;-62
2021/03/07 03:21:34;;;;;;;16.80;8.43;;;;;;;-3.04;83.19;97453.59;4983787;28;20069;-62
2021/03/07 03:24:00;;;;;;;17.25;9.30;;;;;;;-3.28;83.93;97448.66;4985193;28;20081;-63
2021/03/07 03:26:26;;;;;;;13.77;8.07;;;;;;;-3.46;85.07;97453.38;4979368;28;20191;-62
2021/03/07 03:28:54;;;;;;;17.77;9.48;;;;;;;-3.49;85.68;97447.72;4983532;28;20499;-63
2021/03/07 03:31:20;;;;;;;14.98;8.45;;;;;;;-3.47;86.01;97441.03;4978082;28;20450;-62
2021/03/07 03:33:46;;;;;;;18.02;9.93;;;;;;;-3.34;86.03;97441.66;4981743;28;20038;-63
2021/03/07 03:36:11;;;;;;;16.20;8.60;;;;;;;-3.32;84.96;97434.16;4975291;28;20047;-62
2021/03/07 03:38:45;;;;;;;20.33;9.05;;;;;;;-3.30;84.66;97442.75;4985406;28;20403;-64
2021/03/07 03:41:12;;;;;;;15.75;8.35;;;;;;;-3.19;84.82;97431.00;4983908;28;20038;-62
2021/03/07 03:43:40;;;;;;;21.85;9.52;;;;;;;-2.99;84.83;97443.72;4995409;28;20061;-61
2021/03/07 03:46:08;;;;;;;17.20;8.48;;;;;;;-2.75;84.15;97444.09;4981692;28;20042;-62
2021/03/07 03:48:38;;;;;;;17.60;7.95;;;;;;;-2.52;82.44;97442.00;5002671;28;20129;-61
2021/03/07 03:51:07;;;;;;;13.50;7.93;;;;;;;-2.61;81.79;97444.44;4999017;28;20181;-62
2021/03/07 03:53:34;;;;;;;21.37;9.43;;;;;;;-2.44;82.03;97440.72;5002696;28;20041;-61
2021/03/07 03:56:01;;;;;;;12.55;8.02;;;;;;;-2.36;81.76;97442.88;5004984;28;20041;-62
2021/03/07 03:58:29;;;;;;;15.23;8.23;;;;;;;-2.42;81.35;97423.28;4998435;28;20694;-60
2021/03/07 04:00:56;;;;;;;17.10;8.67;;;;;;;-2.36;81.74;97430.28;4997044;28;20516;-64
2021/03/07 04:03:24;;;;;;;14.05;7.60;;;;;;;-2.19;81.17;97431.91;4977191;28;20129;-61
2021/03/07 04:05:51;;;;;;;15.13;8.45;;;;;;;-2.34;80.54;97433.50;4965260;28;20042;-62
2021/03/07 04:08:19;;;;;;;15.02;7.68;;;;;;;-2.35;80.26;97434.56;4977508;28;20436;-61
2021/03/07 04:10:46;;;;;;;14.85;8.27;;;;;;;-2.21;80.89;97442.91;4983112;28;20500;-60
2021/03/07 04:13:26;;;;;;;16.17;8.63;;;;;;;-1.95;80.16;97435.69;4977368;28;20125;-62
2021/03/07 04:15:54;;;;;;;17.08;7.88;;;;;;;-2.03;79.62;97425.50;4992111;28;20043;-62
2021/03/07 04:18:23;;;;;;;12.88;7.93;;;;;;;-2.14;79.78;97431.94;4992846;28;20042;-61
2021/03/07 04:20:50;;;;;;;14.37;7.30;;;;;;;-2.22;81.05;97427.88;4983429;28;20038;-61
2021/03/07 04:23:16;;;;;;;16.85;8.20;;;;;;;-2.37;81.03;97428.66;4976183;28;20102;-62
2021/03/07 04:25:42;;;;;;;16.67;8.93;;;;;;;-2.63;82.60;97435.00;4982585;28;20130;-62
2021/03/07 04:28:08;;;;;;;20.63;8.35;;;;;;;-2.81;83.42;97430.94;4977507;28;20038;-62
2021/03/07 04:30:35;;;;;;;15.88;9.73;;;;;;;-2.85;83.24;97433.31;4964408;28;20078;-64
2021/03/07 04:33:02;;;;;;;19.73;8.32;;;;;;;-2.86;83.79;97439.78;4973308;28;20054;-64
2021/03/07 04:35:28;;;;;;;15.63;9.00;;;;;;;-2.79;83.82;97432.28;4986030;28;20050;-61
2021/03/07 04:38:01;;;;;;;19.33;8.98;;;;;;;-2.77;83.21;97445.44;4999294;28;20132;-61
2021/03/07 04:40:27;;;;;;;13.25;8.20;;;;;;;-2.84;83.60;97442.19;4996614;28;20582;-62
2021/03/07 04:42:53;;;;;;;14.63;8.65;;;;;;;-2.91;83.72;97427.13;4983004;28;20137;-61
2021/03/07 04:45:19;;;;;;;14.52;8.77;;;;;;;-2.94;84.30;97430.34;4978590;28;20491;-62
2021/03/07 04:47:45;;;;;;;16.45;8.48;;;;;;;-2.97;83.55;97424.69;4983143;28;20605;-62
2021/03/07 04:50:12;;;;;;;16.30;8.98;;;;;;;-2.90;84.66;97422.56;4972210;28;20058;-62
2021/03/07 04:52:38;;;;;;;16.67;9.13;;;;;;;-3.05;86.34;97420.63;4969069;28;20043;-63
2021/03/07 04:55:05;;;;;;;16.50;9.25;;;;;;;-3.18;86.93;97418.44;4997986;28;20104;-64
2021/03/07 04:57:30;;;;;;;19.45;9.90;;;;;;;-3.17;86.35;97418.19;4994122;28;20048;-63
2021/03/07 04:59:56;;;;;;;17.45;9.82;;;;;;;-3.14;86.25;97412.28;4992805;28;20046;-64
2021/03/07 05:02:21;;;;;;;17.10;8.50;;;;;;;-3.10;85.83;97420.59;4995814;28;20522;-64
2021/03/07 05:04:47;;;;;;;19.33;9.98;;;;;;;-3.14;85.42;97414.97;4992248;28;20053;-60
2021/03/07 05:07:12;;;;;;;17.63;9.30;;;;;;;-3.19;85.37;97416.81;4982055;28;20039;-62
2021/03/07 05:09:37;;;;;;;17.60;8.63;;;;;;;-3.24;85.30;97416.78;4985562;28;20069;-62
2021/03/07 05:12:04;;;;;;;14.80;8.10;;;;;;;-3.26;85.13;97417.03;4976148;28;20114;-61
2021/03/07 05:14:29;;;;;;;18.77;9.10;;;;;;;-3.10;85.77;97424.13;4966894;28;20050;-63
2021/03/07 05:16:54;;;;;;;15.88;7.97;;;;;;;-3.07;85.51;97430.81;4991482;28;20403;-61
2021/03/07 05:19:20;;;;;;;16.42;8.73;;;;;;;-3.14;85.47;97428.38;4979472;28;20038;-63
2021/03/07 05:21:45;;;;;;;19.23;8.60;;;;;;;-3.19;86.95;97422.19;4989983;28;20045;-61
2021/03/07 05:24:11;;;;;;;17.70;8.80;;;;;;;-3.17;86.82;97418.19;4984415;28;20097;-62
2021/03/07 05:26:36;;;;;;;17.70;9.32;;;;;;;-3.11;86.52;97419.00;4998861;28;20101;-61
2021/03/07 05:29:02;;;;;;;15.02;8.77;;;;;;;-3.15;86.04;97424.09;5020429;28;20037;-61
2021/03/07 05:31:27;;;;;;;18.27;9.35;;;;;;;-3.19;85.49;97411.47;5012637;28;20514;-64
2021/03/07 05:33:52;;;;;;;15.27;8.43;;;;;;;-3.20;85.81;97412.53;5008909;28;20053;-61
2021/03/07 05:36:18;;;;;;;16.70;8.32;;;;;;;-3.23;85.52;97418.41;4995882;28;20458;-60
2021/03/07 05:38:44;;;;;;;18.10;9.00;;;;;;;-3.31;84.62;97409.00;4997209;28;20049;-62
2021/03/07 05:41:12;;;;;;;15.85;8.80;;;;;;;-3.33;85.20;97405.75;4989245;28;20394;-61
2021/03/07 05:43:38;;;;;;;18.65;8.93;;;;;;;-3.32;84.82;97402.00;4992919;28;20053;-61
2021/03/07 05:46:03;;;;;;;16.48;8.82;;;;;;;-3.34;84.75;97402.28;4990225;28;20037;-62
2021/03/07 05:48:29;;;;;;;15.45;7.90;;;;;;;-3.34;84.90;97414.88;4990942;28;20136;-63
2021/03/07 05:50:55;;;;;;;14.60;8.68;;;;;;;-3.33;85.19;97409.25;4984516;28;20518;-61
2021/03/07 05:53:21;;;;;;;15.73;9.43;;;;;;;-3.16;85.26;97417.09;4988386;28;20459;-61
2021/03/07 05:55:46;;;;;;;16.98;9.02;;;;;;;-3.09;84.83;97406.16;4994083;28;20088;-60
2021/03/07 05:58:14;;;;;;;15.23;8.82;;;;;;;-3.07;84.89;97409.38;4983528;28;20042;-62
2021/03/07 06:00:40;;;;;;;17.40;10.38;;;;;;;-3.03;84.89;97402.41;4991313;28;20329;-63
2021/03/07 06:03:06;;;;;;;18.65;10.52;;;;;;;-2.92;85.06;97387.19;4989245;28;20036;-62
2021/03/07 06:05:33;;;;;;;17.77;9.73;;;;;;;-2.80;84.71;97387.78;4992794;28;20065;-60
2021/03/07 06:08:00;;;;;;;19.58;12.20;;;;;;;-2.90;84.97;97379.69;5003559;28;20046;-60
2021/03/07 06:10:29;;;;;;;19.27;12.35;;;;;;;-3.23;87.38;97375.53;4986396;28;20058;-60
2021/03/07 06:12:59;;;;;;;21.10;9.85;;;;;;;-3.15;86.92;97378.53;4994778;28;20045;-60
2021/03/07 06:15:26;;;;;;;19.40;10.38;;;;;;;-2.91;87.24;97383.44;4986693;28;20058;-63
2021/03/07 06:17:52;;;;;;;18.95;10.13;;;;;;;-2.68;86.09;97384.88;4993917;28;20101;-62
2021/03/07 06:20:22;;;;;;;19.70;9.98;;;;;;;-2.55;85.58;97391.59;4999935;28;20050;-61
2021/03/07 06:22:52;;;;;;;20.73;9.98;;;;;;;-2.23;85.70;97388.72;4993528;28;20042;-58
2021/03/07 06:25:19;;;;;;;18.13;9.90;;;;;;;-1.95;83.75;97381.19;4981610;28;20046;-60
2021/03/07 06:27:45;;;;;;;20.50;10.35;;;;;;;-1.63;81.27;97378.22;4984930;28;20133;-62
2021/03/07 06:30:14;;;;;;;19.92;10.50;;;;;;;-1.43;80.38;97388.13;4988294;28;20054;-61
2021/03/07 06:32:50;;;;;;;17.00;9.30;;;;;;;-1.43;80.14;97390.00;5009569;28;20053;-62
2021/03/07 06:35:28;;;;;;;16.60;9.05;;;;;;;-1.47;80.38;97389.75;4988955;28;20046;-62
2021/03/07 06:37:59;;;;;;;16.63;9.02;;;;;;;-1.22;80.01;97378.13;4992142;28;20454;-61
2021/03/07 06:40:52;;;;;;;17.95;8.63;;;;;;;-1.02;79.46;97371.09;4984051;28;20046;-62
2021/03/07 06:43:24;;;;;;;15.30;8.95;;;;;;;-1.07;78.74;97368.41;4983363;28;20046;-63
2021/03/07 06:45:49;;;;;;;21.60;9.73;;;;;;;-1.16;81.57;97358.22;4995533;28;20042;-60
2021/03/07 06:48:15;;;;;;;22.42;11.15;;;;;;;-2.06;84.25;97356.22;4986849;28;20050;-59
2021/03/07 06:50:57;;;;;;;43.60;19.15;;;;;;;-2.25;85.32;97357.81;4983760;28;20511;-61
2021/03/07 06:53:37;;;;;;;20.67;11.35;;;;;;;-2.06;84.45;97363.47;4981649;28;20125;-59
2021/03/07 06:56:06;;;;;;;19.02;10.68;;;;;;;-1.80;84.08;97361.56;4996428;28;20076;-62
2021/03/07 06:58:32;;;;;;;24.25;12.43;;;;;;;-1.63;81.87;97375.53;4997355;28;20553;-60
2021/03/07 07:00:57;;;;;;;24.38;12.35;;;;;;;-1.06;81.69;97375.38;4984477;28;20042;-60
2021/03/07 07:03:24;;;;;;;18.70;10.30;;;;;;;-0.30;78.75;97390.34;4988632;28;20050;-61
2021/03/07 07:05:52;;;;;;;16.23;9.25;;;;;;;0.37;76.38;97397.91;4984865;28;20038;-60
2021/03/07 07:08:39;;;;;;;15.60;9.85;;;;;;;0.99;73.95;97400.00;4974630;28;20034;-62
2021/03/07 07:11:06;;;;;;;14.93;8.13;;;;;;;1.52;69.92;97389.88;4988203;28;20557;-61
2021/03/07 07:13:42;;;;;;;18.52;9.32;;;;;;;1.67;68.88;97379.97;4982990;28;20054;-62
2021/03/07 07:16:10;;;;;;;18.35;11.27;;;;;;;0.68;71.46;97384.94;4984386;28;20129;-59
2021/03/07 07:18:38;;;;;;;19.45;10.73;;;;;;;-0.05;74.57;97373.22;4991965;28;20047;-60
2021/03/07 07:21:09;;;;;;;17.70;10.45;;;;;;;-0.34;76.02;97377.72;4985575;28;20053;-61
2021/03/07 07:23:35;;;;;;;19.73;9.98;;;;;;;-0.94;78.82;97365.13;4957435;28;20185;-62
2021/03/07 07:26:02;;;;;;;20.30;12.35;;;;;;;-1.24;80.51;97366.84;4994405;28;20065;-63
2021/03/07 07:28:29;;;;;;;21.10;10.68;;;;;;;-1.06;81.10;97349.31;4991480;28;20129;-63
2021/03/07 07:31:03;;;;;;;26.90;13.98;;;;;;;-0.91;80.76;97356.50;4984418;28;20054;-61
2021/03/07 07:33:35;;;;;;;22.98;11.68;;;;;;;-0.54;80.70;97378.63;4991389;28;20053;-64
2021/03/07 07:36:01;;;;;;;15.88;9.55;;;;;;;0.00;77.18;97380.47;4974297;28;20053;-63
2021/03/07 07:38:29;;;;;;;16.00;8.95;;;;;;;0.40;75.51;97385.75;4977067;28;20042;-65
2021/03/07 07:40:54;;;;;;;19.23;8.70;;;;;;;0.98;73.56;97366.81;4993488;28;20057;-63
2021/03/07 07:43:20;;;;;;;17.30;9.60;;;;;;;0.34;74.14;97356.19;4980425;28;20045;-65
2021/03/07 07:45:45;;;;;;;20.35;10.63;;;;;;;0.25;76.06;97374.03;4974387;28;20161;-64
2021/03/07 07:48:11;;;;;;;19.17;9.13;;;;;;;0.49;73.85;97370.59;5015358;22;20559;-64
2021/03/07 07:50:39;;;;;;;20.48;9.52;;;;;;;0.99;72.51;97376.53;5007876;28;20042;-65
2021/03/07 07:53:05;;;;;;;16.13;9.30;;;;;;;1.41;70.67;97376.84;5007541;28;20045;-60
2021/03/07 07:55:46;;;;;;;18.83;9.48;;;;;;;1.48;69.88;97388.06;5002534;28;20057;-63
2021/03/07 07:58:47;;;;;;;18.23;9.63;;;;;;;0.84;70.58;97364.00;4993256;28;20053;-65
2021/03/07 08:01:13;;;;;;;15.65;9.07;;;;;;;0.69;72.38;97369.59;4989968;28;20045;-63
2021/03/07 08:03:46;;;;;;;17.20;9.15;;;;;;;0.85;73.44;97373.72;4991657;28;20153;-62
2021/03/07 08:06:24;;;;;;;17.17;8.85;;;;;;;1.64;68.82;97348.97;4988161;28;20709;-64
2021/03/07 08:08:50;;;;;;;14.68;8.82;;;;;;;1.94;67.86;97354.97;4990315;28;20065;-64
2021/03/07 08:11:18;;;;;;;14.57;8.38;;;;;;;1.94;67.85;97368.50;4993080;28;20402;-65
2021/03/07 08:13:54;;;;;;;14.23;8.73;;;;;;;2.33;66.37;97361.94;4997035;28;20078;-64
2021/03/07 08:16:43;;;;;;;16.40;9.25;;;;;;;2.88;64.22;97361.19;4988811;28;20510;-65
2021/03/07 08:19:30;;;;;;;12.43;7.90;;;;;;;3.61;63.08;97358.63;4986590;28;20045;-64
2021/03/07 08:22:07;;;;;;;20.13;9.45;;;;;;;5.26;58.52;97371.56;4998696;28;20042;-64
2021/03/07 08:24:51;;;;;;;13.98;8.25;;;;;;;6.84;52.72;97367.69;5000692;28;20041;-64
2021/03/07 08:27:37;;;;;;;13.13;7.63;;;;;;;6.78;51.92;97363.56;4983266;28;20049;-64
2021/03/07 08:30:08;;;;;;;12.35;7.70;;;;;;;7.34;50.77;97358.03;4993496;28;20085;-63
2021/03/07 08:32:40;;;;;;;12.90;7.93;;;;;;;6.60;51.75;97357.38;4997123;28;20037;-65
2021/03/07 08:35:16;;;;;;;12.35;7.22;;;;;;;6.43;52.75;97350.84;4992645;28;20073;-64
2021/03/07 08:38:02;;;;;;;13.27;7.60;;;;;;;6.08;53.15;97348.16;4979163;28;20054;-65
2021/03/07 08:40:30;;;;;;;18.25;8.30;;;;;;;5.81;55.10;97345.75;4991910;28;20050;-64
2021/03/07 08:43:21;;;;;;;13.68;8.07;;;;;;;5.63;55.96;97340.28;4999445;28;20392;-64
2021/03/07 08:46:02;;;;;;;14.38;8.65;;;;;;;5.19;56.89;97341.34;5000528;28;20045;-64
2021/03/07 08:48:29;;;;;;;12.25;7.57;;;;;;;5.26;57.38;97333.56;4992610;28;20049;-64
2021/03/07 08:50:56;;;;;;;17.45;8.50;;;;;;;5.36;57.18;97331.31;5019423;28;20049;-65
2021/03/07 08:53:26;;;;;;;13.98;7.93;;;;;;;5.77;55.52;97325.78;4994883;28;20816;-64
2021/03/07 08:55:52;;;;;;;14.07;7.85;;;;;;;6.29;54.35;97331.19;4998939;28;20549;-64
2021/03/07 08:58:22;;;;;;;12.20;7.50;;;;;;;7.22;51.58;97321.41;4994018;28;20129;-63
2021/03/07 09:00:50;;;;;;;14.25;8.18;;;;;;;7.54;50.07;97315.59;4999327;28;20041;-65
2021/03/07 09:03:17;;;;;;;13.35;7.72;;;;;;;6.85;51.50;97321.09;4994032;28;20038;-64
2021/03/07 09:05:43;;;;;;;15.07;9.02;;;;;;;7.74;50.07;97308.53;5001406;28;20034;-65
2021/03/07 09:08:08;;;;;;;15.18;7.38;;;;;;;7.97;47.93;97307.06;4993666;28;20552;-63
2021/03/07 09:10:39;;;;;;;13.85;8.45;;;;;;;9.03;46.52;97301.28;5000219;28;20053;-64
2021/03/07 09:13:17;;;;;;;14.05;8.35;;;;;;;6.37;52.21;97299.63;4989445;28;20050;-62
2021/03/07 09:15:50;;;;;;;14.00;8.38;;;;;;;6.96;50.67;97296.22;4998462;28;20410;-65
2021/03/07 09:18:20;;;;;;;15.80;8.90;;;;;;;6.75;51.77;97291.50;4980675;28;20066;-64
2021/03/07 09:20:49;;;;;;;14.70;9.63;;;;;;;7.38;50.23;97285.38;4999079;28;20076;-64
2021/03/07 09:23:48;;;;;;;14.32;8.80;;;;;;;5.89;54.39;97285.16;5004247;28;20065;-67
2021/03/07 09:26:19;;;;;;;15.07;8.50;;;;;;;6.46;53.56;97284.91;4956328;28;20418;-64
2021/03/07 09:28:48;;;;;;;14.05;8.77;;;;;;;6.35;55.04;97280.91;4999182;28;20388;-64
2021/03/07 09:31:24;;;;;;;17.63;10.03;;;;;;;7.21;51.74;97276.19;4988022;28;20042;-65
2021/03/07 09:33:55;;;;;;;14.45;8.93;;;;;;;7.72;50.80;97281.59;5001056;28;20052;-62
2021/03/07 09:36:22;;;;;;;15.15;8.93;;;;;;;7.37;52.20;97278.34;4993850;28;20614;-64
2021/03/07 09:38:53;;;;;;;16.55;8.88;;;;;;;7.44;52.09;97270.44;4998924;28;20081;-65
2021/03/07 09:41:35;;;;;;;14.65;8.07;;;;;;;8.33;49.08;97277.50;4988440;28;20070;-65
2021/03/07 09:44:22;;;;;;;14.82;8.68;;;;;;;6.95;51.18;97270.91;4998837;28;20050;-64
2021/03/07 09:46:57;;;;;;;15.45;8.80;;;;;;;7.70;50.21;97269.44;4996089;28;20549;-64
2021/03/07 09:49:24;;;;;;;18.33;9.30;;;;;;;7.92;49.96;97266.34;4992477;28;20050;-65
2021/03/07 09:51:52;;;;;;;16.40;9.38;;;;;;;8.06;50.29;97268.00;4998637;28;20087;-65
2021/03/07 09:54:18;;;;;;;16.17;9.55;;;;;;;8.18;49.30;97268.81;4994252;28;20125;-64
2021/03/07 09:56:45;;;;;;;16.50;9.32;;;;;;;8.74;48.17;97265.66;4999015;28;20046;-65
2021/03/07 09:59:15;;;;;;;13.95;8.63;;;;;;;9.07;46.53;97262.00;4989436;28;20158;-65
2021/03/07 10:01:43;;;;;;;14.10;8.70;;;;;;;9.12;46.70;97260.97;4999071;28;20038;-64
2021/03/07 10:04:36;;;;;;;16.55;9.68;;;;;;;9.50;45.53;97254.31;4994480;28;20133;-65
2021/03/07 10:07:11;;;;;;;26.52;13.20;;;;;;;9.68;45.48;97246.63;4993513;28;20065;-62
2021/03/07 10:09:55;;;;;;;14.85;9.25;;;;;;;10.30;43.96;97242.47;4998535;28;20552;-64
2021/03/07 10:12:20;;;;;;;14.25;8.50;;;;;;;11.31;42.13;97231.19;4992955;28;20530;-66
2021/03/07 10:14:55;;;;;;;15.38;9.07;;;;;;;10.37;43.65;97230.13;4981524;28;20418;-66
2021/03/07 10:17:21;;;;;;;15.45;9.13;;;;;;;11.20;42.04;97235.63;4994233;28;20470;-65
2021/03/07 10:19:47;;;;;;;15.02;8.07;;;;;;;12.12;39.77;97233.25;5000041;28;20112;-66
2021/03/07 10:22:13;;;;;;;16.95;7.65;;;;;;;11.61;41.47;97234.19;4993810;28;20041;-64
2021/03/07 10:24:38;;;;;;;14.13;9.25;;;;;;;11.40;42.03;97223.53;4999611;28;20136;-63
2021/03/07 10:27:12;;;;;;;16.63;9.50;;;;;;;10.59;43.72;97237.72;4988040;28;20124;-65
2021/03/07 10:29:39;;;;;;;17.30;9.68;;;;;;;10.71;44.35;97234.91;4999215;28;20066;-64
2021/03/07 10:32:09;;;;;;;16.23;9.65;;;;;;;10.64;44.49;97231.19;4994279;28;20037;-64
2021/03/07 10:34:42;;;;;;;15.75;9.43;;;;;;;10.23;45.12;97230.53;4996665;28;20049;-64
2021/03/07 10:37:09;;;;;;;17.60;8.93;;;;;;;9.91;46.48;97217.56;4992601;28;20053;-64
2021/03/07 10:39:35;;;;;;;16.95;8.85;;;;;;;9.76;46.82;97215.59;4973896;28;20050;-64
2021/03/07 10:42:11;;;;;;;14.65;9.35;;;;;;;9.70;46.72;97214.25;4997891;28;20048;-62
2021/03/07 10:44:41;;;;;;;15.02;8.80;;;;;;;9.15;47.67;97219.31;5002783;28;20088;-64
2021/03/07 10:47:14;;;;;;;17.03;10.03;;;;;;;8.29;51.26;97214.63;5001746;28;20041;-64
2021/03/07 10:49:40;;;;;;;18.92;10.25;;;;;;;8.48;51.07;97216.03;5024076;28;20039;-64
2021/03/07 10:52:06;;;;;;;16.67;10.30;;;;;;;8.77;50.61;97204.88;5005362;28;20042;-65
2021/03/07 10:54:31;;;;;;;20.67;10.52;;;;;;;9.50;48.12;97203.13;4999892;28;20053;-64
2021/03/07 10:56:56;;;;;;;17.48;9.95;;;;;;;9.21;49.74;97206.19;5002487;28;20045;-64
2021/03/07 10:59:23;;;;;;;16.98;9.80;;;;;;;9.35;49.16;97201.16;4996247;28;20057;-64
2021/03/07 11:01:49;;;;;;;17.90;11.05;;;;;;;9.34;48.84;97199.53;4993645;28;20049;-64
2021/03/07 11:04:14;;;;;;;16.90;10.23;;;;;;;9.34;49.61;97200.34;4996465;28;20046;-63
2021/03/07 11:06:40;;;;;;;18.40;10.95;;;;;;;8.91;51.02;97190.06;5002132;28;20042;-63
2021/03/07 11:09:05;;;;;;;18.63;11.38;;;;;;;7.50;54.91;97194.72;4987558;28;20517;-63
2021/03/07 11:11:33;;;;;;;21.02;11.27;;;;;;;8.48;53.29;97195.00;5002021;28;20044;-63
2021/03/07 11:13:59;;;;;;;22.90;12.80;;;;;;;9.38;50.83;97189.50;5000852;28;20045;-64
2021/03/07 11:16:24;;;;;;;22.50;12.75;;;;;;;10.27;48.22;97188.41;4995348;28;20079;-63
2021/03/07 11:18:49;;;;;;;22.40;13.13;;;;;;;9.76;49.08;97180.81;4993258;28;20053;-63
2021/03/07 11:21:16;;;;;;;20.45;12.02;;;;;;;9.69;49.04;97177.09;4974783;28;20069;-62
2021/03/07 11:23:41;;;;;;;20.70;11.93;;;;;;;9.80;48.87;97169.19;4996714;28;20073;-63
2021/03/07 11:26:06;;;;;;;26.73;13.43;;;;;;;9.14;51.05;97176.72;4996008;28;20486;-63
2021/03/07 11:28:32;;;;;;;27.23;13.50;;;;;;;8.55;52.58;97187.03;5002187;28;20054;-63
2021/03/07 11:30:57;;;;;;;24.50;13.50;;;;;;;8.41;53.22;97181.88;5001463;28;20129;-62
2021/03/07 11:33:23;;;;;;;20.85;12.18;;;;;;;8.77;51.86;97174.84;4990823;28;20601;-62
2021/03/07 11:35:48;;;;;;;20.80;12.63;;;;;;;8.87;52.10;97175.50;5000671;28;20057;-63